Time;durP1;ratioP1;P1;durP2;ratioP2;P2;SDS_P1;SDS_P2;PMS_P1;PMS_P2;Temp;Humidity;BMP_temperature;BMP_pressure;BME280_temperature;BME280_humidity;BME280_pressure;Samples;Min_cycle;Max_cycle;Signal;HPM_P1;HPM_P2
2024/03/13 00:00:22;;;;;;;4.80;4.40;;;;;;;;;;6124100;23;20618;-79
2024/03/13 00:02:50;;;;;;;4.67;4.27;;;;;;;;;;6122597;23;20251;-80
2024/03/13 00:05:17;;;;;;;5.93;4.20;;;;;;;;;;6098291;23;20203;-80
2024/03/13 00:07:50;;;;;;;4.87;4.47;;;;;;;;;;6099315;23;20584;-80
2024/03/13 00:10:18;;;;;;;5.20;4.70;;;;;;;;;;6124329;23;20163;-83
2024/03/13 00:12:45;;;;;;;4.93;4.43;;;;;;;;;;6122679;23;20226;-82
2024/03/13 00:15:15;;;;;;;4.77;4.37;;;;;;;;;;6124378;23;20211;-81
2024/03/13 00:17:44;;;;;;;4.67;4.20;;;;;;;;;;6098542;23;20183;-82
2024/03/13 00:20:13;;;;;;;5.37;4.40;;;;;;;;;;6122581;23;20176;-81
2024/03/13 00:22:40;;;;;;;4.87;4.47;;;;;;;;;;6124760;23;20176;-80
2024/03/13 00:25:11;;;;;;;4.70;4.30;;;;;;;;;;6124278;23;20188;-82
2024/03/13 00:27:46;;;;;;;6.17;4.37;;;;;;;;;;6122864;23;20173;-81
2024/03/13 00:30:17;;;;;;;4.33;4.03;;;;;;;;;;6137060;23;20205;-80
2024/03/13 00:32:44;;;;;;;4.50;4.10;;;;;;;;;;6128138;23;20167;-82
2024/03/13 00:35:13;;;;;;;4.77;4.27;;;;;;;;;;6102750;23;20254;-82
2024/03/13 00:37:41;;;;;;;5.00;4.60;;;;;;;;;;6128101;23;20163;-80
2024/03/13 00:40:09;;;;;;;4.73;4.33;;;;;;;;;;6127785;23;20169;-81
2024/03/13 00:42:36;;;;;;;4.27;3.93;;;;;;;;;;6127715;23;20229;-81
2024/03/13 00:45:05;;;;;;;5.80;4.53;;;;;;;;;;6127407;23;20258;-82
2024/03/13 00:47:34;;;;;;;4.70;4.30;;;;;;;;;;6103522;23;20226;-82
2024/03/13 00:50:07;;;;;;;4.80;4.40;;;;;;;;;;6102987;23;20179;-82
2024/03/13 00:52:38;;;;;;;5.03;4.63;;;;;;;;;;6127909;23;20175;-80
2024/03/13 00:55:09;;;;;;;5.20;4.70;;;;;;;;;;6126996;23;20169;-82
2024/03/13 00:57:41;;;;;;;4.83;4.43;;;;;;;;;;6153252;23;20150;-80
2024/03/13 01:00:10;;;;;;;5.27;4.50;;;;;;;;;;6127201;23;20257;-82
2024/03/13 01:02:43;;;;;;;5.00;4.60;;;;;;;;;;6153349;23;20170;-80
2024/03/13 01:05:17;;;;;;;4.80;4.30;;;;;;;;;;6153007;23;20228;-83
2024/03/13 01:07:48;;;;;;;4.77;4.37;;;;;;;;;;6103289;23;20170;-81
2024/03/13 01:10:16;;;;;;;5.23;4.50;;;;;;;;;;6127177;23;20167;-80
2024/03/13 01:12:44;;;;;;;5.37;4.73;;;;;;;;;;6127784;23;20175;-82
2024/03/13 01:15:14;;;;;;;4.90;4.40;;;;;;;;;;6127226;23;20174;-81
2024/03/13 01:17:42;;;;;;;5.20;4.70;;;;;;;;;;6154254;23;20151;-81
2024/03/13 01:20:15;;;;;;;4.87;4.47;;;;;;;;;;6153507;23;20177;-80
2024/03/13 01:22:47;;;;;;;5.07;4.67;;;;;;;;;;6127594;23;20186;-81
2024/03/13 01:25:22;;;;;;;5.03;4.53;;;;;;;;;;6128538;23;20170;-81
2024/03/13 01:27:49;;;;;;;5.10;4.67;;;;;;;;;;6127428;23;20181;-82
2024/03/13 01:30:18;;;;;;;5.43;4.93;;;;;;;;;;6121830;23;20367;-80
2024/03/13 01:32:47;;;;;;;5.63;5.13;;;;;;;;;;6121886;23;20174;-82
2024/03/13 01:35:16;;;;;;;5.70;5.20;;;;;;;;;;6122010;23;20167;-80
2024/03/13 01:37:56;;;;;;;5.40;4.90;;;;;;;;;;6123979;23;20159;-80
2024/03/13 01:40:28;;;;;;;5.67;5.13;;;;;;;;;;6122503;23;20238;-83
2024/03/13 01:57:12;;;;;;;5.50;5.00;;;;;;;;;;6125320;23;20196;-81
2024/03/13 01:59:49;;;;;;;5.70;5.20;;;;;;;;;;6124178;23;20172;-80
2024/03/13 02:02:24;;;;;;;5.77;5.27;;;;;;;;;;6124052;23;20171;-80
2024/03/13 02:04:53;;;;;;;6.20;5.60;;;;;;;;;;6100163;23;20171;-82
2024/03/13 02:07:31;;;;;;;5.40;4.90;;;;;;;;;;6123642;23;20202;-80
2024/03/13 02:10:00;;;;;;;5.17;4.73;;;;;;;;;;6123968;23;20179;-82
2024/03/13 02:12:27;;;;;;;5.47;4.97;;;;;;;;;;6125121;23;20243;-82
2024/03/13 02:14:54;;;;;;;5.27;4.80;;;;;;;;;;6125535;23;20164;-79
2024/03/13 02:17:22;;;;;;;6.30;5.20;;;;;;;;;;6123740;23;20167;-80
2024/03/13 02:19:50;;;;;;;5.40;4.90;;;;;;;;;;6125330;23;20160;-81
2024/03/13 02:22:18;;;;;;;6.50;5.90;;;;;;;;;;6124060;23;20599;-81
2024/03/13 02:24:47;;;;;;;5.57;5.07;;;;;;;;;;6124135;23;20687;-84
2024/03/13 02:27:18;;;;;;;6.33;5.10;;;;;;;;;;6124035;23;20188;-80
2024/03/13 02:29:51;;;;;;;6.00;5.40;;;;;;;;;;6132529;23;20195;-81
2024/03/13 02:32:20;;;;;;;5.63;5.13;;;;;;;;;;6129101;23;20170;-82
2024/03/13 02:34:49;;;;;;;5.60;4.87;;;;;;;;;;6129252;23;20159;-81
2024/03/13 02:37:16;;;;;;;6.00;5.50;;;;;;;;;;6128290;23;20171;-79
2024/03/13 02:39:44;;;;;;;6.00;5.33;;;;;;;;;;6154445;23;20173;-80
2024/03/13 02:42:12;;;;;;;6.27;5.67;;;;;;;;;;6129060;23;20178;-82
2024/03/13 02:44:42;;;;;;;6.10;5.50;;;;;;;;;;6154954;23;20171;-83
2024/03/13 02:47:09;;;;;;;6.03;5.50;;;;;;;;;;6104845;23;20190;-82
2024/03/13 02:49:37;;;;;;;5.97;5.47;;;;;;;;;;6128777;23;20175;-81
2024/03/13 02:52:05;;;;;;;6.20;5.60;;;;;;;;;;6104384;23;20171;-82
2024/03/13 02:54:32;;;;;;;6.67;5.73;;;;;;;;;;6154969;23;20171;-81
2024/03/13 02:57:07;;;;;;;6.83;5.80;;;;;;;;;;6128788;23;20163;-80
2024/03/13 02:59:34;;;;;;;6.77;6.17;;;;;;;;;;6129117;23;20210;-82
2024/03/13 03:02:02;;;;;;;5.90;5.33;;;;;;;;;;6104195;23;20186;-80
2024/03/13 03:04:33;;;;;;;6.23;5.63;;;;;;;;;;6128984;23;20171;-80
2024/03/13 03:07:02;;;;;;;6.20;5.60;;;;;;;;;;6103635;23;20210;-81
2024/03/13 03:09:30;;;;;;;6.43;5.83;;;;;;;;;;6104011;23;20630;-79
2024/03/13 03:11:57;;;;;;;7.03;5.83;;;;;;;;;;6154239;23;20171;-82
2024/03/13 03:14:25;;;;;;;6.43;5.83;;;;;;;;;;6104306;23;20167;-79
2024/03/13 03:16:54;;;;;;;6.70;6.10;;;;;;;;;;6103824;23;20175;-81
2024/03/13 03:19:23;;;;;;;6.73;6.13;;;;;;;;;;6128531;23;20222;-80
2024/03/13 03:21:50;;;;;;;6.60;6.00;;;;;;;;;;6127999;23;20177;-82
2024/03/13 03:24:17;;;;;;;6.70;6.10;;;;;;;;;;6154376;23;20163;-80
2024/03/13 03:26:45;;;;;;;7.23;6.53;;;;;;;;;;6128044;23;20187;-79
2024/03/13 03:29:13;;;;;;;7.00;6.30;;;;;;;;;;6154549;23;20163;-82
2024/03/13 03:31:40;;;;;;;7.03;6.43;;;;;;;;;;6128626;23;20163;-81
2024/03/13 03:34:08;;;;;;;7.30;6.60;;;;;;;;;;6128958;23;20250;-83
2024/03/13 03:36:35;;;;;;;7.37;6.77;;;;;;;;;;6128149;23;20246;-82
2024/03/13 03:39:06;;;;;;;7.63;6.83;;;;;;;;;;6154603;23;20163;-83
2024/03/13 03:41:33;;;;;;;8.00;7.30;;;;;;;;;;6104016;23;20185;-84
2024/03/13 03:44:00;;;;;;;8.07;7.27;;;;;;;;;;6104035;23;20171;-82
2024/03/13 03:46:28;;;;;;;8.67;7.77;;;;;;;;;;6103556;23;20222;-81
2024/03/13 03:48:55;;;;;;;7.87;7.17;;;;;;;;;;6154077;23;20171;-83
2024/03/13 03:51:24;;;;;;;8.37;7.33;;;;;;;;;;6154098;23;20167;-82
2024/03/13 03:53:51;;;;;;;8.37;7.57;;;;;;;;;;6103964;23;20178;-84
2024/03/13 03:56:23;;;;;;;8.10;7.30;;;;;;;;;;6105218;23;20182;-83
2024/03/13 03:58:51;;;;;;;9.10;8.20;;;;;;;;;;6128482;23;20173;-82
2024/03/13 04:01:24;;;;;;;9.07;8.17;;;;;;;;;;6103519;23;20245;-83
2024/03/13 04:03:53;;;;;;;8.53;7.70;;;;;;;;;;6128247;23;20174;-85
2024/03/13 04:06:20;;;;;;;9.17;8.27;;;;;;;;;;6103924;23;20194;-81
2024/03/13 04:08:47;;;;;;;9.30;8.40;;;;;;;;;;6103632;23;20191;-84
2024/03/13 04:11:14;;;;;;;10.07;8.47;;;;;;;;;;6127556;23;20201;-83
2024/03/13 04:13:44;;;;;;;9.57;8.53;;;;;;;;;;6128656;23;20277;-85
2024/03/13 04:16:11;;;;;;;10.07;8.80;;;;;;;;;;6128531;23;20607;-82
2024/03/13 04:18:39;;;;;;;9.50;8.50;;;;;;;;;;6128955;23;20242;-83
2024/03/13 04:21:06;;;;;;;9.73;8.73;;;;;;;;;;6127886;23;20170;-82
2024/03/13 04:23:33;;;;;;;9.53;8.47;;;;;;;;;;6128446;23;20506;-85
2024/03/13 04:26:03;;;;;;;9.67;8.67;;;;;;;;;;6127492;23;20173;-83
2024/03/13 04:28:30;;;;;;;10.23;9.23;;;;;;;;;;6127863;23;20179;-81
2024/03/13 04:31:01;;;;;;;11.23;9.50;;;;;;;;;;6153630;23;20256;-84
2024/03/13 04:33:28;;;;;;;10.60;9.20;;;;;;;;;;6153565;23;20163;-85
2024/03/13 04:35:58;;;;;;;11.77;9.93;;;;;;;;;;6127944;23;20174;-83
2024/03/13 04:38:33;;;;;;;10.87;9.73;;;;;;;;;;6105803;23;20194;-84
2024/03/13 04:41:00;;;;;;;10.40;9.30;;;;;;;;;;6103907;23;20171;-84
2024/03/13 04:43:27;;;;;;;13.60;10.60;;;;;;;;;;6103284;23;20195;-84
2024/03/13 04:45:57;;;;;;;10.77;9.67;;;;;;;;;;6127673;23;20175;-83
2024/03/13 04:48:25;;;;;;;10.47;9.40;;;;;;;;;;6152945;23;20171;-83
2024/03/13 04:50:54;;;;;;;11.43;10.17;;;;;;;;;;6153618;23;20390;-83
2024/03/13 04:53:23;;;;;;;11.73;10.10;;;;;;;;;;6126208;23;20175;-82
2024/03/13 04:55:50;;;;;;;12.47;10.33;;;;;;;;;;6103051;23;20250;-83
2024/03/13 04:58:18;;;;;;;10.90;9.53;;;;;;;;;;6127527;23;20213;-83
2024/03/13 05:00:45;;;;;;;10.60;9.47;;;;;;;;;;6127795;23;20205;-82
2024/03/13 05:03:14;;;;;;;10.90;9.73;;;;;;;;;;6127204;23;20693;-82
2024/03/13 05:05:46;;;;;;;10.83;9.60;;;;;;;;;;6127105;23;20182;-83
2024/03/13 05:08:17;;;;;;;11.23;10.03;;;;;;;;;;6127583;23;20233;-81
2024/03/13 05:10:44;;;;;;;11.10;9.17;;;;;;;;;;6127531;23;20163;-84
2024/03/13 05:13:15;;;;;;;11.23;10.03;;;;;;;;;;6128097;23;20175;-81
2024/03/13 05:15:44;;;;;;;11.33;9.30;;;;;;;;;;6153662;23;20204;-84
2024/03/13 05:18:14;;;;;;;10.87;9.40;;;;;;;;;;6103267;23;20265;-83
2024/03/13 05:20:45;;;;;;;10.77;9.00;;;;;;;;;;6128086;23;20222;-84
2024/03/13 05:23:13;;;;;;;10.17;9.10;;;;;;;;;;6102824;23;20657;-83
2024/03/13 05:25:41;;;;;;;9.70;8.70;;;;;;;;;;6127507;23;20227;-85
2024/03/13 05:28:08;;;;;;;10.47;9.17;;;;;;;;;;6126448;23;20221;-84
2024/03/13 05:30:37;;;;;;;10.13;8.73;;;;;;;;;;6097716;23;20206;-81
2024/03/13 05:33:06;;;;;;;10.70;8.93;;;;;;;;;;6122273;23;20190;-81
2024/03/13 05:35:34;;;;;;;9.77;8.77;;;;;;;;;;6124101;23;20266;-81
2024/03/13 05:38:03;;;;;;;10.93;9.20;;;;;;;;;;6122618;23;20171;-81
2024/03/13 05:40:31;;;;;;;10.20;9.03;;;;;;;;;;6122351;23;20225;-83
2024/03/13 05:42:59;;;;;;;10.10;9.10;;;;;;;;;;6122526;23;20190;-83
2024/03/13 05:45:30;;;;;;;9.73;8.73;;;;;;;;;;6098718;23;20550;-81
2024/03/13 05:48:05;;;;;;;9.67;8.67;;;;;;;;;;6122490;23;20194;-83
2024/03/13 05:50:35;;;;;;;9.90;8.70;;;;;;;;;;6124021;23;20199;-81
2024/03/13 05:53:03;;;;;;;9.30;8.40;;;;;;;;;;6123021;23;20172;-81
2024/03/13 05:55:33;;;;;;;10.27;8.87;;;;;;;;;;6123030;23;20682;-81
2024/03/13 05:58:01;;;;;;;10.33;9.27;;;;;;;;;;6122179;23;20184;-83
2024/03/13 06:00:29;;;;;;;10.63;9.50;;;;;;;;;;6098455;23;20171;-84
2024/03/13 06:02:56;;;;;;;10.67;9.03;;;;;;;;;;6098784;23;20678;-83
2024/03/13 06:05:26;;;;;;;10.63;9.17;;;;;;;;;;6122080;23;20176;-83
2024/03/13 06:07:56;;;;;;;10.17;9.10;;;;;;;;;;6123280;23;20198;-82
2024/03/13 06:10:25;;;;;;;9.77;8.60;;;;;;;;;;6098342;23;20176;-80
2024/03/13 06:12:57;;;;;;;10.30;9.00;;;;;;;;;;6123747;23;20164;-83
2024/03/13 06:15:29;;;;;;;11.03;9.30;;;;;;;;;;6122596;23;20658;-82
2024/03/13 06:18:02;;;;;;;11.13;9.67;;;;;;;;;;6122268;23;20183;-81
2024/03/13 06:20:30;;;;;;;10.80;9.70;;;;;;;;;;6122141;23;20168;-81
2024/03/13 06:22:58;;;;;;;11.13;9.20;;;;;;;;;;6122299;23;20626;-81
2024/03/13 06:25:29;;;;;;;10.57;9.30;;;;;;;;;;6124268;23;20244;-83
2024/03/13 06:29:55;;;;;;;11.20;10.00;;;;;;;;;;6123876;23;20277;-81
2024/03/13 06:30:47;;;;;;;11.33;10.10;;;;;;;;;;6122638;23;20574;-83
2024/03/13 06:33:17;;;;;;;10.77;9.67;;;;;;;;;;6123820;23;20168;-83
2024/03/13 06:35:44;;;;;;;11.00;9.83;;;;;;;;;;6122203;23;20714;-81
2024/03/13 06:38:14;;;;;;;10.47;9.10;;;;;;;;;;6122444;23;20172;-82
2024/03/13 06:40:42;;;;;;;11.60;9.63;;;;;;;;;;6099227;23;20199;-84
2024/03/13 06:43:09;;;;;;;10.47;9.47;;;;;;;;;;6123458;23;20178;-79
2024/03/13 06:45:45;;;;;;;11.10;9.90;;;;;;;;;;6099719;23;20172;-81
2024/03/13 06:48:13;;;;;;;11.40;10.10;;;;;;;;;;6123770;23;20197;-78
2024/03/13 06:50:40;;;;;;;11.20;10.03;;;;;;;;;;6124103;23;20163;-82
2024/03/13 06:53:08;;;;;;;11.00;9.67;;;;;;;;;;6124847;23;20171;-80
2024/03/13 06:55:37;;;;;;;11.37;9.53;;;;;;;;;;6125031;23;20167;-80
2024/03/13 06:58:05;;;;;;;13.10;9.50;;;;;;;;;;6099248;23;20171;-79
2024/03/13 07:00:32;;;;;;;11.60;9.63;;;;;;;;;;6123399;23;20176;-83
2024/03/13 07:03:02;;;;;;;10.57;9.27;;;;;;;;;;6123450;23;20247;-81
2024/03/13 07:05:30;;;;;;;10.60;9.50;;;;;;;;;;6123370;23;20251;-79
2024/03/13 07:07:58;;;;;;;10.53;9.20;;;;;;;;;;6123138;23;20188;-82
2024/03/13 07:10:27;;;;;;;10.87;9.30;;;;;;;;;;6123591;23;20178;-82
2024/03/13 07:13:06;;;;;;;11.87;9.17;;;;;;;;;;6123353;23;20246;-81
2024/03/13 07:15:38;;;;;;;10.57;9.47;;;;;;;;;;6124410;23;20176;-83
2024/03/13 07:18:07;;;;;;;10.43;9.30;;;;;;;;;;6123255;23;20271;-80
2024/03/13 07:20:36;;;;;;;10.20;8.97;;;;;;;;;;6099248;23;20247;-80
2024/03/13 07:23:10;;;;;;;10.53;9.13;;;;;;;;;;6122924;23;20244;-80
2024/03/13 07:25:40;;;;;;;10.03;9.03;;;;;;;;;;6124859;23;20187;-79
2024/03/13 07:28:14;;;;;;;11.27;9.43;;;;;;;;;;6124196;23;20191;-79
2024/03/13 07:30:42;;;;;;;10.17;9.13;;;;;;;;;;6122486;23;20230;-81
2024/03/13 07:33:12;;;;;;;10.40;9.30;;;;;;;;;;6122368;23;20183;-81
2024/03/13 07:35:46;;;;;;;10.87;9.10;;;;;;;;;;6122115;23;20171;-78
2024/03/13 07:38:15;;;;;;;12.47;8.97;;;;;;;;;;6122434;23;20174;-80
2024/03/13 07:40:47;;;;;;;11.80;9.50;;;;;;;;;;6122546;23;20250;-79
2024/03/13 07:43:14;;;;;;;10.33;9.30;;;;;;;;;;6123870;23;20685;-78
2024/03/13 07:45:41;;;;;;;10.50;9.40;;;;;;;;;;6122676;23;20164;-83
2024/03/13 07:48:08;;;;;;;10.63;8.93;;;;;;;;;;6121495;23;20203;-81
2024/03/13 07:50:38;;;;;;;12.47;9.27;;;;;;;;;;6121112;23;20168;-81
2024/03/13 07:53:06;;;;;;;10.73;9.17;;;;;;;;;;6095450;23;20226;-79
2024/03/13 07:55:33;;;;;;;9.83;8.83;;;;;;;;;;6120049;23;20206;-80
2024/03/13 07:58:02;;;;;;;10.87;9.10;;;;;;;;;;6122933;23;20275;-80
2024/03/13 08:00:35;;;;;;;10.97;8.70;;;;;;;;;;6123982;23;20247;-79
2024/03/13 08:03:04;;;;;;;12.17;9.23;;;;;;;;;;6123725;23;20167;-79
2024/03/13 08:05:35;;;;;;;9.87;8.83;;;;;;;;;;6123947;23;20246;-81
2024/03/13 08:08:05;;;;;;;10.43;8.77;;;;;;;;;;6121923;23;20254;-80
2024/03/13 08:10:52;;;;;;;10.30;9.20;;;;;;;;;;6123744;23;20152;-79
2024/03/13 08:13:37;;;;;;;11.03;9.83;;;;;;;;;;6123619;23;20159;-80
2024/03/13 08:16:22;;;;;;;10.20;9.13;;;;;;;;;;6101531;23;20158;-79
2024/03/13 08:19:07;;;;;;;11.23;9.57;;;;;;;;;;6123632;23;20179;-81
2024/03/13 08:21:55;;;;;;;11.60;9.80;;;;;;;;;;6122106;23;20159;-79
2024/03/13 08:24:40;;;;;;;11.90;9.93;;;;;;;;;;6123725;23;20156;-81
2024/03/13 08:27:27;;;;;;;11.40;9.70;;;;;;;;;;6123225;23;20180;-80
2024/03/13 08:30:17;;;;;;;12.10;9.90;;;;;;;;;;6122079;23;20187;-82
2024/03/13 08:33:01;;;;;;;11.17;9.17;;;;;;;;;;6123104;23;20215;-81
2024/03/13 08:35:45;;;;;;;12.17;9.77;;;;;;;;;;6123609;23;20176;-80
2024/03/13 08:38:32;;;;;;;12.23;9.77;;;;;;;;;;6123505;23;20170;-81
2024/03/13 08:41:17;;;;;;;11.57;9.73;;;;;;;;;;6123470;23;20190;-82
2024/03/13 08:44:09;;;;;;;10.83;9.70;;;;;;;;;;6122389;23;20159;-79
2024/03/13 08:46:53;;;;;;;12.10;10.00;;;;;;;;;;6120812;23;20512;-82
2024/03/13 08:49:37;;;;;;;11.13;9.50;;;;;;;;;;6121651;23;20159;-81
2024/03/13 08:52:22;;;;;;;12.03;10.73;;;;;;;;;;6120239;23;20140;-80
2024/03/13 08:55:06;;;;;;;13.53;10.00;;;;;;;;;;6101454;23;20598;-81
2024/03/13 08:57:50;;;;;;;11.20;9.57;;;;;;;;;;6121691;23;20140;-79
2024/03/13 09:00:34;;;;;;;12.20;10.53;;;;;;;;;;6123464;23;20191;-79
2024/03/13 09:03:18;;;;;;;12.53;9.70;;;;;;;;;;6123033;23;20166;-80
2024/03/13 09:06:07;;;;;;;10.87;9.70;;;;;;;;;;6121786;23;20231;-80
2024/03/13 09:08:36;;;;;;;11.57;9.93;;;;;;;;;;6123301;23;20192;-83
2024/03/13 09:11:16;;;;;;;12.10;9.97;;;;;;;;;;6121998;23;20147;-81
2024/03/13 09:13:44;;;;;;;11.30;10.10;;;;;;;;;;6121338;23;20171;-80
2024/03/13 09:16:15;;;;;;;11.53;10.20;;;;;;;;;;6123263;23;20172;-82
2024/03/13 09:18:44;;;;;;;10.47;9.37;;;;;;;;;;6097429;23;20179;-80
2024/03/13 09:21:12;;;;;;;10.70;9.27;;;;;;;;;;6123183;23;20218;-81
2024/03/13 09:23:40;;;;;;;13.87;11.27;;;;;;;;;;6123215;23;20615;-80
2024/03/13 09:26:07;;;;;;;10.83;9.67;;;;;;;;;;6123306;23;20259;-82
2024/03/13 09:28:34;;;;;;;11.43;9.70;;;;;;;;;;6097457;23;20192;-80
2024/03/13 09:31:02;;;;;;;10.53;9.20;;;;;;;;;;6121043;23;20291;-81
2024/03/13 09:33:33;;;;;;;10.93;9.27;;;;;;;;;;6118584;23;20198;-79
2024/03/13 09:36:01;;;;;;;10.07;8.97;;;;;;;;;;6122064;23;20682;-79
2024/03/13 09:38:33;;;;;;;10.13;8.37;;;;;;;;;;6121840;23;20167;-81
2024/03/13 09:41:07;;;;;;;10.13;8.93;;;;;;;;;;6097631;23;20194;-80
2024/03/13 09:43:36;;;;;;;9.40;8.40;;;;;;;;;;6121608;23;20259;-81
2024/03/13 09:46:03;;;;;;;8.67;7.73;;;;;;;;;;6123275;23;20160;-82
2024/03/13 09:48:32;;;;;;;12.07;9.70;;;;;;;;;;6121045;23;20190;-82
2024/03/13 09:51:11;;;;;;;10.17;8.37;;;;;;;;;;6117561;23;20231;-81
2024/03/13 09:53:40;;;;;;;10.10;8.53;;;;;;;;;;6119323;23;20182;-81
2024/03/13 09:56:13;;;;;;;9.70;8.70;;;;;;;;;;6123158;23;20170;-82
2024/03/13 09:58:45;;;;;;;11.17;9.90;;;;;;;;;;6121506;23;20666;-81
2024/03/13 10:01:17;;;;;;;10.93;9.80;;;;;;;;;;6119707;23;20175;-82
2024/03/13 10:03:49;;;;;;;11.80;10.50;;;;;;;;;;6120151;23;20156;-81
2024/03/13 10:06:19;;;;;;;8.97;7.83;;;;;;;;;;6121458;23;20226;-80
2024/03/13 10:08:48;;;;;;;8.77;7.87;;;;;;;;;;6120592;23;20203;-81
2024/03/13 10:11:17;;;;;;;10.27;8.30;;;;;;;;;;6121021;23;20172;-83
2024/03/13 10:13:45;;;;;;;9.87;8.13;;;;;;;;;;6121870;23;20642;-81
2024/03/13 10:16:12;;;;;;;8.30;7.50;;;;;;;;;;6122930;23;20186;-81
2024/03/13 10:18:42;;;;;;;8.53;7.27;;;;;;;;;;6123158;23;20235;-83
2024/03/13 10:21:15;;;;;;;10.93;8.83;;;;;;;;;;6123110;23;20172;-81
2024/03/13 10:23:47;;;;;;;9.57;8.37;;;;;;;;;;6122969;23;20164;-80
2024/03/13 10:26:16;;;;;;;7.80;7.00;;;;;;;;;;6122894;23;20176;-80
2024/03/13 10:28:48;;;;;;;7.20;6.43;;;;;;;;;;6121573;23;20291;-81
2024/03/13 10:31:19;;;;;;;8.33;7.10;;;;;;;;;;6121279;23;20212;-81
2024/03/13 10:33:52;;;;;;;8.17;7.37;;;;;;;;;;6123159;23;20186;-82
2024/03/13 10:36:20;;;;;;;8.53;7.63;;;;;;;;;;6124265;23;20203;-79
2024/03/13 10:38:53;;;;;;;8.53;7.07;;;;;;;;;;6124331;23;20183;-79
2024/03/13 10:41:20;;;;;;;9.53;7.40;;;;;;;;;;6124475;23;20165;-81
2024/03/13 10:43:49;;;;;;;8.10;6.97;;;;;;;;;;6122610;23;20172;-83
2024/03/13 10:46:17;;;;;;;8.50;7.60;;;;;;;;;;6123922;23;20148;-80
2024/03/13 10:48:44;;;;;;;8.33;7.50;;;;;;;;;;6124125;23;20237;-80
2024/03/13 10:51:13;;;;;;;8.10;7.30;;;;;;;;;;6123030;23;20178;-80
2024/03/13 10:53:43;;;;;;;8.60;7.70;;;;;;;;;;6122611;23;20173;-80
2024/03/13 10:56:14;;;;;;;7.77;6.97;;;;;;;;;;6098814;23;20176;-79
2024/03/13 10:58:46;;;;;;;9.20;7.27;;;;;;;;;;6122803;23;20173;-82
2024/03/13 11:01:16;;;;;;;7.73;6.80;;;;;;;;;;6124809;23;20168;-80
2024/03/13 11:03:45;;;;;;;8.37;6.73;;;;;;;;;;6124953;23;20231;-81
2024/03/13 11:06:14;;;;;;;7.83;7.13;;;;;;;;;;6123363;23;20654;-81
2024/03/13 11:08:43;;;;;;;8.00;6.90;;;;;;;;;;6123009;23;20216;-80
2024/03/13 11:11:14;;;;;;;7.53;6.77;;;;;;;;;;6123010;23;20260;-80
2024/03/13 11:13:54;;;;;;;7.27;6.53;;;;;;;;;;6123028;23;20158;-80
2024/03/13 11:16:23;;;;;;;7.23;6.37;;;;;;;;;;6124623;23;20236;-82
2024/03/13 11:18:55;;;;;;;7.23;6.50;;;;;;;;;;6124154;23;20170;-80
2024/03/13 11:21:39;;;;;;;7.53;6.60;;;;;;;;;;6124322;23;20145;-80
2024/03/13 11:24:07;;;;;;;6.90;6.20;;;;;;;;;;6124598;23;20158;-80
2024/03/13 11:26:42;;;;;;;6.97;6.20;;;;;;;;;;6122548;23;20166;-80
2024/03/13 11:29:11;;;;;;;7.23;6.53;;;;;;;;;;6122780;23;20199;-83
2024/03/13 11:31:42;;;;;;;6.93;6.20;;;;;;;;;;6124926;23;20194;-80
2024/03/13 11:34:10;;;;;;;7.07;6.37;;;;;;;;;;6124042;23;20225;-83
2024/03/13 11:36:37;;;;;;;7.10;6.40;;;;;;;;;;6123968;23;20173;-80
2024/03/13 11:39:05;;;;;;;7.30;6.50;;;;;;;;;;6124065;23;20189;-80
2024/03/13 11:41:33;;;;;;;7.57;6.83;;;;;;;;;;6122546;23;20178;-79
2024/03/13 11:44:00;;;;;;;7.20;6.40;;;;;;;;;;6122564;23;20257;-80
2024/03/13 11:46:49;;;;;;;6.90;5.87;;;;;;;;;;6122841;23;20165;-81
2024/03/13 11:49:19;;;;;;;7.10;6.40;;;;;;;;;;6123106;23;20176;-81
2024/03/13 11:52:03;;;;;;;6.53;5.93;;;;;;;;;;6098974;23;20619;-80
2024/03/13 11:54:30;;;;;;;6.50;5.87;;;;;;;;;;6123094;23;20646;-81
2024/03/13 11:57:17;;;;;;;5.80;5.20;;;;;;;;;;6122787;23;20519;-79
2024/03/13 11:59:51;;;;;;;6.37;5.77;;;;;;;;;;6098827;23;20165;-80
2024/03/13 12:02:28;;;;;;;5.80;5.17;;;;;;;;;;6099313;23;20164;-81
2024/03/13 12:05:06;;;;;;;5.30;4.80;;;;;;;;;;6124269;23;20165;-80
2024/03/13 12:07:36;;;;;;;5.50;5.00;;;;;;;;;;6122446;23;20173;-81
2024/03/13 12:10:17;;;;;;;6.10;5.50;;;;;;;;;;6123046;23;20174;-80
2024/03/13 12:12:45;;;;;;;6.23;5.63;;;;;;;;;;6098609;23;20173;-82
2024/03/13 12:15:17;;;;;;;6.97;6.27;;;;;;;;;;6122517;23;20506;-81
2024/03/13 12:17:47;;;;;;;6.30;5.70;;;;;;;;;;6121083;23;20175;-82
2024/03/13 12:20:17;;;;;;;6.60;5.87;;;;;;;;;;6097306;23;20175;-76
2024/03/13 12:22:46;;;;;;;6.10;5.40;;;;;;;;;;6121834;23;20164;-74
2024/03/13 12:25:14;;;;;;;6.73;5.97;;;;;;;;;;6123379;23;20394;-78
2024/03/13 12:27:49;;;;;;;5.83;5.23;;;;;;;;;;6123058;23;20164;-76
2024/03/13 12:30:19;;;;;;;6.00;5.40;;;;;;;;;;6121467;23;20736;-75
2024/03/13 12:32:57;;;;;;;6.43;5.63;;;;;;;;;;6123297;23;20695;-73
2024/03/13 12:35:25;;;;;;;6.23;5.63;;;;;;;;;;6123802;23;20168;-76
2024/03/13 12:37:57;;;;;;;6.30;5.70;;;;;;;;;;6123052;23;20168;-77
2024/03/13 12:40:24;;;;;;;6.93;6.10;;;;;;;;;;6123528;23;20239;-77
2024/03/13 12:42:54;;;;;;;6.87;6.20;;;;;;;;;;6123006;23;20184;-77
2024/03/13 12:45:26;;;;;;;7.93;7.03;;;;;;;;;;6123373;23;20188;-76
2024/03/13 12:47:54;;;;;;;5.80;5.20;;;;;;;;;;6122389;23;20187;-76
2024/03/13 12:50:21;;;;;;;6.57;5.87;;;;;;;;;;6123326;23;20249;-76
2024/03/13 12:52:51;;;;;;;6.77;6.07;;;;;;;;;;6122782;23;20173;-77
2024/03/13 12:55:22;;;;;;;7.43;5.87;;;;;;;;;;6123183;23;20245;-77
2024/03/13 12:57:50;;;;;;;6.57;5.30;;;;;;;;;;6122774;23;20228;-76
2024/03/13 13:00:20;;;;;;;7.30;6.10;;;;;;;;;;6123103;23;20176;-75
2024/03/13 13:02:51;;;;;;;6.10;5.50;;;;;;;;;;6122629;23;20170;-79
2024/03/13 13:05:19;;;;;;;7.37;6.33;;;;;;;;;;6123268;23;20166;-76
2024/03/13 13:07:52;;;;;;;7.03;6.33;;;;;;;;;;6119969;23;20166;-78
2024/03/13 13:10:21;;;;;;;6.53;5.80;;;;;;;;;;6122838;23;20158;-76
2024/03/13 13:12:52;;;;;;;6.47;5.80;;;;;;;;;;6122527;23;20156;-74
2024/03/13 13:15:19;;;;;;;7.73;5.93;;;;;;;;;;6122648;23;20171;-75
2024/03/13 13:17:51;;;;;;;6.50;5.80;;;;;;;;;;6120943;23;20566;-75
2024/03/13 13:20:19;;;;;;;6.53;5.90;;;;;;;;;;6123089;23;20152;-75
2024/03/13 13:22:47;;;;;;;6.40;5.80;;;;;;;;;;6120315;23;20160;-76
2024/03/13 13:25:17;;;;;;;7.03;6.13;;;;;;;;;;6122927;23;20167;-77
2024/03/13 13:27:50;;;;;;;6.43;5.83;;;;;;;;;;6122648;23;20173;-75
2024/03/13 13:30:18;;;;;;;6.70;6.00;;;;;;;;;;6135138;23;20280;-76
2024/03/13 13:32:46;;;;;;;7.43;6.23;;;;;;;;;;6151833;23;20177;-77
2024/03/13 13:35:14;;;;;;;7.23;6.50;;;;;;;;;;6152196;23;20250;-76
2024/03/13 13:37:42;;;;;;;7.50;5.90;;;;;;;;;;6151210;23;20166;-75
2024/03/13 13:40:12;;;;;;;6.90;6.20;;;;;;;;;;6125588;23;20174;-76
2024/03/13 13:42:46;;;;;;;6.30;5.60;;;;;;;;;;6151718;23;20173;-76
2024/03/13 13:45:13;;;;;;;6.87;5.87;;;;;;;;;;6152539;23;20167;-75
2024/03/13 13:47:41;;;;;;;7.13;6.43;;;;;;;;;;6151885;23;20174;-75
2024/03/13 13:50:14;;;;;;;7.17;5.63;;;;;;;;;;6153807;23;20182;-75
2024/03/13 13:52:44;;;;;;;6.17;5.53;;;;;;;;;;6153765;23;20174;-76
2024/03/13 13:55:13;;;;;;;6.77;5.93;;;;;;;;;;6153757;23;20171;-77
2024/03/13 13:57:42;;;;;;;6.57;5.87;;;;;;;;;;6153325;23;20183;-75
2024/03/13 14:00:19;;;;;;;6.67;6.03;;;;;;;;;;6152643;23;20163;-74
2024/03/13 14:02:46;;;;;;;6.70;6.10;;;;;;;;;;6151313;23;20175;-75
2024/03/13 14:05:16;;;;;;;6.77;5.90;;;;;;;;;;6151260;23;20170;-77
2024/03/13 14:07:44;;;;;;;6.10;5.30;;;;;;;;;;6152310;23;20168;-75
2024/03/13 14:10:11;;;;;;;5.87;5.27;;;;;;;;;;6152091;23;20593;-83
2024/03/13 14:12:40;;;;;;;6.60;5.70;;;;;;;;;;6099068;23;20171;-80
2024/03/13 14:15:11;;;;;;;6.03;5.43;;;;;;;;;;6150459;23;20233;-80
2024/03/13 14:17:38;;;;;;;5.97;5.13;;;;;;;;;;6127642;23;20167;-81
2024/03/13 14:20:13;;;;;;;6.33;5.70;;;;;;;;;;6128013;23;20182;-82
2024/03/13 14:22:40;;;;;;;6.97;5.80;;;;;;;;;;6128004;23;20221;-82
2024/03/13 14:25:08;;;;;;;6.13;5.40;;;;;;;;;;6128303;23;20257;-80
2024/03/13 14:27:35;;;;;;;5.63;5.03;;;;;;;;;;6103070;23;20165;-80
2024/03/13 14:30:03;;;;;;;6.17;4.90;;;;;;;;;;6101053;23;20213;-81
2024/03/13 14:32:33;;;;;;;5.77;4.90;;;;;;;;;;6127797;23;20198;-80
2024/03/13 14:35:01;;;;;;;6.83;5.50;;;;;;;;;;6100286;23;20281;-80
2024/03/13 14:37:35;;;;;;;6.13;5.20;;;;;;;;;;6122550;23;20252;-79
2024/03/13 14:40:03;;;;;;;6.00;5.33;;;;;;;;;;6152204;23;20165;-82
2024/03/13 14:42:32;;;;;;;5.77;5.20;;;;;;;;;;6126976;23;20181;-82
2024/03/13 14:45:01;;;;;;;6.33;5.13;;;;;;;;;;6153911;23;20160;-82
2024/03/13 14:47:30;;;;;;;5.63;4.80;;;;;;;;;;6153704;23;20212;-80
2024/03/13 14:49:58;;;;;;;6.50;5.83;;;;;;;;;;6127706;23;20656;-81
2024/03/13 14:52:25;;;;;;;7.00;5.83;;;;;;;;;;6127931;23;20177;-80
2024/03/13 14:54:52;;;;;;;5.87;5.30;;;;;;;;;;6153794;23;20178;-83
2024/03/13 14:57:19;;;;;;;6.00;5.10;;;;;;;;;;6128026;23;20253;-80
2024/03/13 14:59:50;;;;;;;6.53;5.77;;;;;;;;;;6127297;23;20181;-81
2024/03/13 15:02:18;;;;;;;6.80;5.63;;;;;;;;;;6125738;23;20163;-81
2024/03/13 15:04:46;;;;;;;6.13;5.53;;;;;;;;;;6149867;23;20265;-80
2024/03/13 15:07:14;;;;;;;6.70;5.47;;;;;;;;;;6103080;23;20172;-80
2024/03/13 15:09:43;;;;;;;6.30;5.47;;;;;;;;;;6154420;23;20186;-82
2024/03/13 15:12:11;;;;;;;6.17;5.40;;;;;;;;;;6104143;23;20181;-83